createdAt,value
2022-10-18T00:02:38.126Z,15.32
2022-10-18T00:05:23.241Z,15.35
2022-10-18T00:08:08.424Z,15.36
2022-10-18T00:10:53.756Z,15.30
2022-10-18T00:13:39.305Z,15.28
2022-10-18T00:16:24.531Z,15.31
2022-10-18T00:19:09.680Z,15.28
2022-10-18T00:21:54.695Z,15.29
2022-10-18T00:24:39.748Z,15.26
2022-10-18T00:27:24.802Z,15.25
2022-10-18T00:30:10.250Z,15.13
2022-10-18T00:32:55.362Z,15.15
2022-10-18T00:35:40.290Z,15.18
2022-10-18T00:38:25.263Z,15.19
2022-10-18T00:41:12.826Z,15.20
2022-10-18T00:43:57.921Z,15.22
2022-10-18T00:46:45.784Z,15.21
2022-10-18T00:49:35.247Z,15.20
2022-10-18T00:52:29.306Z,15.22
2022-10-18T00:55:14.402Z,15.16
2022-10-18T00:58:00.468Z,15.17
2022-10-18T01:00:45.287Z,15.21
2022-10-18T01:03:30.794Z,15.17
2022-10-18T01:06:15.772Z,15.14
2022-10-18T01:09:14.809Z,15.11
2022-10-18T01:12:28.628Z,15.16
2022-10-18T01:15:26.993Z,15.17
2022-10-18T01:18:27.435Z,15.13
2022-10-18T01:21:42.888Z,15.10
2022-10-18T01:28:13.123Z,15.10
2022-10-18T01:31:04.842Z,15.09
2022-10-18T01:33:56.870Z,15.08
2022-10-18T01:36:49.491Z,15.07
2022-10-18T01:39:39.914Z,15.09
2022-10-18T01:42:25.685Z,15.04
2022-10-18T01:45:13.854Z,15.04
2022-10-18T01:48:00.382Z,15.09
2022-10-18T01:50:45.303Z,15.05
2022-10-18T01:53:33.397Z,15.06
2022-10-18T01:56:27.705Z,15.13
2022-10-18T01:59:24.079Z,15.14
2022-10-18T02:02:24.770Z,15.06
2022-10-18T02:05:22.774Z,15.07
2022-10-18T02:08:45.521Z,15.02
2022-10-18T02:11:32.919Z,15.05
2022-10-18T02:14:19.483Z,15.11
2022-10-18T02:17:08.593Z,15.12
2022-10-18T02:19:55.654Z,15.12
2022-10-18T02:22:45.707Z,15.17
2022-10-18T02:25:31.921Z,15.18
2022-10-18T02:28:17.189Z,15.22
2022-10-18T02:31:10.563Z,15.22
2022-10-18T02:34:04.586Z,15.22
2022-10-18T02:36:55.656Z,15.23
2022-10-18T02:39:45.635Z,15.22
2022-10-18T02:42:46.604Z,15.19
2022-10-18T02:45:32.713Z,15.16
2022-10-18T02:48:17.970Z,15.17
2022-10-18T02:51:03.179Z,15.16
2022-10-18T02:53:48.009Z,15.16
2022-10-18T02:56:33.128Z,15.24
2022-10-18T02:59:18.276Z,15.30
2022-10-18T03:02:03.149Z,15.28
2022-10-18T03:04:47.880Z,15.21
2022-10-18T03:07:33.222Z,15.21
2022-10-18T03:10:18.574Z,15.24
2022-10-18T03:13:03.782Z,15.23
2022-10-18T03:15:48.751Z,15.25
2022-10-18T03:18:33.829Z,15.25
2022-10-18T03:21:18.928Z,15.24
2022-10-18T03:24:04.347Z,15.22
2022-10-18T03:26:49.428Z,15.25
2022-10-18T03:29:34.643Z,15.21
2022-10-18T03:32:19.613Z,15.17
2022-10-18T03:35:06.028Z,15.14
2022-10-18T03:37:51.088Z,15.13
2022-10-18T03:40:36.363Z,15.09
2022-10-18T03:43:22.007Z,15.08
2022-10-18T03:46:07.316Z,15.11
2022-10-18T03:48:52.482Z,15.16
2022-10-18T03:51:37.451Z,15.17
2022-10-18T03:54:22.666Z,15.10
2022-10-18T03:57:07.673Z,15.09
2022-10-18T03:59:52.618Z,15.09
2022-10-18T04:02:37.868Z,15.12
2022-10-18T04:05:24.073Z,15.16
2022-10-18T04:08:08.999Z,15.16
2022-10-18T04:10:54.123Z,15.18
2022-10-18T04:13:39.116Z,15.19
2022-10-18T04:16:23.973Z,15.18
2022-10-18T04:19:08.946Z,15.16
2022-10-18T04:21:54.038Z,15.17
2022-10-18T04:24:39.382Z,15.15
2022-10-18T04:27:25.297Z,15.15
2022-10-18T04:30:10.841Z,15.15
2022-10-18T04:32:55.742Z,15.13
2022-10-18T04:35:40.581Z,15.14
2022-10-18T04:38:25.623Z,15.14
2022-10-18T04:41:10.747Z,15.15
2022-10-18T04:43:55.751Z,15.17
2022-10-18T04:46:40.963Z,15.17
2022-10-18T04:49:25.780Z,15.17
2022-10-18T04:52:11.380Z,15.13
2022-10-18T04:54:56.353Z,15.12
2022-10-18T04:57:41.415Z,15.15
2022-10-18T05:00:26.547Z,15.17
2022-10-18T05:03:13.473Z,15.19
2022-10-18T05:06:01.773Z,15.18
2022-10-18T05:08:48.895Z,15.16
2022-10-18T05:11:33.998Z,15.19
2022-10-18T05:14:19.184Z,15.15
2022-10-18T05:17:04.179Z,15.16
2022-10-18T05:19:49.263Z,15.17
2022-10-18T05:22:34.447Z,15.18
2022-10-18T05:25:19.848Z,15.20
2022-10-18T05:28:10.827Z,15.21
2022-10-18T05:31:02.660Z,15.20
2022-10-18T05:33:48.020Z,15.21
2022-10-18T05:36:33.238Z,15.19
2022-10-18T05:39:18.540Z,15.22
2022-10-18T05:42:04.340Z,15.18
2022-10-18T05:44:49.475Z,15.19
2022-10-18T05:50:20.688Z,15.14
2022-10-18T05:53:12.087Z,15.11
2022-10-18T05:56:04.001Z,15.11
2022-10-18T05:58:52.068Z,15.14
2022-10-18T06:01:38.794Z,15.17
2022-10-18T06:04:23.640Z,15.15
2022-10-18T06:07:12.771Z,15.16
2022-10-18T06:09:57.579Z,15.19
2022-10-18T06:12:42.394Z,15.16
2022-10-18T06:15:27.532Z,15.18
2022-10-18T06:18:12.581Z,15.21
2022-10-18T06:20:59.040Z,15.18
2022-10-18T06:23:47.747Z,15.21
2022-10-18T06:26:32.835Z,15.23
2022-10-18T06:29:18.031Z,15.24
2022-10-18T06:32:03.822Z,15.26
2022-10-18T06:34:48.904Z,15.22
2022-10-18T06:37:35.553Z,15.25
2022-10-18T06:40:20.608Z,15.25
2022-10-18T06:43:20.029Z,15.26
2022-10-18T06:46:08.112Z,15.29
2022-10-18T06:48:53.229Z,15.31
2022-10-18T06:51:39.142Z,15.30
2022-10-18T06:54:23.852Z,15.30
2022-10-18T06:57:09.368Z,15.30
2022-10-18T06:59:54.256Z,15.35
2022-10-18T07:02:41.129Z,15.38
2022-10-18T07:05:26.409Z,15.38
2022-10-18T07:08:11.397Z,15.37
2022-10-18T07:10:57.070Z,15.39
2022-10-18T07:13:42.074Z,15.41
2022-10-18T07:16:26.998Z,15.41
2022-10-18T07:19:12.140Z,15.40
2022-10-18T07:21:57.295Z,15.38
2022-10-18T07:24:42.032Z,15.38
2022-10-18T07:27:27.124Z,15.38
2022-10-18T07:30:12.439Z,15.37
2022-10-18T07:32:57.501Z,15.35
2022-10-18T07:35:42.450Z,15.39
2022-10-18T07:38:27.477Z,15.41
2022-10-18T07:41:13.785Z,15.43
2022-10-18T07:43:59.081Z,15.47
2022-10-18T07:46:43.817Z,15.46
2022-10-18T07:49:28.995Z,15.54
2022-10-18T07:52:14.178Z,15.46
2022-10-18T07:54:59.274Z,15.42
2022-10-18T07:57:44.054Z,15.47
2022-10-18T08:00:29.263Z,15.52
2022-10-18T08:03:14.336Z,15.54
2022-10-18T08:05:59.593Z,15.54
2022-10-18T08:08:45.684Z,15.49
2022-10-18T08:11:30.823Z,15.50
2022-10-18T08:14:16.109Z,15.59
2022-10-18T08:17:01.184Z,15.47
2022-10-18T08:20:04.787Z,15.48
2022-10-18T08:22:59.869Z,15.46
2022-10-18T08:25:45.603Z,15.45
2022-10-18T08:28:30.951Z,15.45
2022-10-18T08:31:17.755Z,15.52
2022-10-18T08:34:02.759Z,15.55
2022-10-18T08:36:47.606Z,15.51
2022-10-18T08:39:32.781Z,15.59
2022-10-18T08:42:58.727Z,15.48
2022-10-18T08:45:44.194Z,15.54
2022-10-18T08:48:43.170Z,15.60
2022-10-18T08:51:55.024Z,15.61
2022-10-18T08:55:08.031Z,15.70
2022-10-18T08:57:53.114Z,15.73
2022-10-18T09:00:43.975Z,15.78
2022-10-18T09:03:57.220Z,15.79
2022-10-18T09:07:05.668Z,15.76
2022-10-18T09:10:19.931Z,15.84
2022-10-18T09:13:42.125Z,15.84
2022-10-18T09:16:45.173Z,15.90
2022-10-18T09:19:55.666Z,15.96
2022-10-18T09:22:49.724Z,15.98
2022-10-18T09:25:37.236Z,15.89
2022-10-18T09:28:42.830Z,15.92
2022-10-18T09:31:40.719Z,15.96
2022-10-18T09:34:42.522Z,15.96
2022-10-18T09:37:30.262Z,15.96
2022-10-18T09:40:21.308Z,16.16
2022-10-18T09:43:13.400Z,16.35
2022-10-18T09:45:58.980Z,16.41
2022-10-18T09:48:49.932Z,16.56
2022-10-18T09:51:37.639Z,16.49
2022-10-18T09:54:35.791Z,16.42
2022-10-18T09:57:32.296Z,16.30
2022-10-18T10:00:27.924Z,16.23
2022-10-18T10:03:14.636Z,16.24
2022-10-18T10:06:24.890Z,16.37
2022-10-18T10:09:17.942Z,16.39
2022-10-18T10:12:03.183Z,16.31
2022-10-18T10:14:48.043Z,16.44
2022-10-18T10:17:34.438Z,16.43
2022-10-18T10:20:48.475Z,16.41
2022-10-18T10:23:43.954Z,16.38
2022-10-18T10:26:33.788Z,16.35
2022-10-18T10:29:46.494Z,16.43
2022-10-18T10:32:45.573Z,16.33
2022-10-18T10:38:37.311Z,16.18
2022-10-18T10:41:23.983Z,16.22
2022-10-18T10:44:21.153Z,16.13
2022-10-18T10:47:06.674Z,16.17
2022-10-18T10:49:52.394Z,16.23
2022-10-18T10:52:41.108Z,16.28
2022-10-18T10:55:35.819Z,16.26
2022-10-18T10:58:21.588Z,16.26
2022-10-18T11:01:30.963Z,16.29
2022-10-18T11:04:26.207Z,16.30
2022-10-18T11:07:36.832Z,16.24
2022-10-18T11:10:25.623Z,16.32
2022-10-18T11:13:32.356Z,16.37
2022-10-18T11:16:33.790Z,16.25
2022-10-18T11:19:34.032Z,16.22
2022-10-18T11:22:22.606Z,16.25
2022-10-18T11:25:13.145Z,16.39
2022-10-18T11:28:09.458Z,16.37
2022-10-18T11:31:21.640Z,16.41
2022-10-18T11:34:25.026Z,16.44
2022-10-18T11:37:38.400Z,16.35
2022-10-18T11:41:00.208Z,16.32
2022-10-18T11:44:04.092Z,16.42
2022-10-18T11:47:12.211Z,16.59
2022-10-18T11:50:17.941Z,16.73
2022-10-18T11:53:30.842Z,16.64
2022-10-18T11:56:53.424Z,16.60
2022-10-18T11:59:51.272Z,16.89
2022-10-18T12:02:47.830Z,17.09
2022-10-18T12:05:36.880Z,17.04
2022-10-18T12:08:29.163Z,17.10
2022-10-18T12:11:17.779Z,17.09
2022-10-18T12:14:05.773Z,16.95
2022-10-18T12:16:58.417Z,17.00
2022-10-18T12:19:55.968Z,17.18
2022-10-18T12:22:59.257Z,17.21
2022-10-18T12:25:52.641Z,17.25
2022-10-18T12:28:52.624Z,17.19
2022-10-18T12:31:45.818Z,17.21
2022-10-18T12:34:36.388Z,17.46
2022-10-18T12:37:24.624Z,17.35
2022-10-18T12:40:18.541Z,17.21
2022-10-18T12:43:23.322Z,17.23
2022-10-18T12:46:13.550Z,17.05
2022-10-18T12:49:04.596Z,16.96
2022-10-18T12:51:52.806Z,16.92
2022-10-18T12:54:39.466Z,16.91
2022-10-18T12:57:24.817Z,16.93
2022-10-18T13:00:29.967Z,17.05
2022-10-18T13:03:17.975Z,17.32
2022-10-18T13:06:06.662Z,17.55
2022-10-18T13:09:19.300Z,17.79
2022-10-18T13:12:09.994Z,17.93
2022-10-18T13:15:34.489Z,18.05
2022-10-18T13:18:46.471Z,18.20
2022-10-18T13:22:04.012Z,18.04
2022-10-18T13:25:04.095Z,17.98
2022-10-18T13:28:05.321Z,17.94
2022-10-18T13:31:14.572Z,17.74
2022-10-18T13:34:25.304Z,17.41
2022-10-18T13:37:10.321Z,17.23
2022-10-18T13:40:25.045Z,17.03
2022-10-18T13:43:54.935Z,16.83
2022-10-18T13:46:40.073Z,16.88
2022-10-18T13:49:40.122Z,16.89
2022-10-18T13:52:40.287Z,16.99
2022-10-18T13:56:01.747Z,16.99
2022-10-18T13:59:13.794Z,16.91
2022-10-18T14:02:36.315Z,17.17
2022-10-18T14:05:49.119Z,17.18
2022-10-18T14:08:43.957Z,17.22
2022-10-18T14:11:46.971Z,17.15
2022-10-18T14:14:42.964Z,16.97
2022-10-18T14:17:42.124Z,16.83
2022-10-18T14:20:36.903Z,16.73
2022-10-18T14:23:34.327Z,16.71
2022-10-18T14:26:20.816Z,16.79
2022-10-18T14:29:07.626Z,16.70
2022-10-18T14:31:54.320Z,16.66
2022-10-18T14:34:43.830Z,16.73
2022-10-18T14:37:36.545Z,16.83
2022-10-18T14:40:40.334Z,16.94
2022-10-18T14:43:25.478Z,16.90
2022-10-18T14:46:16.024Z,16.93
2022-10-18T14:49:04.203Z,16.82
2022-10-18T14:51:52.971Z,16.76
2022-10-18T14:54:38.191Z,16.69
2022-10-18T14:57:27.935Z,16.66
2022-10-18T15:03:14.864Z,16.74
2022-10-18T15:06:03.033Z,16.72
2022-10-18T15:08:53.514Z,16.83
2022-10-18T15:11:41.307Z,16.68
2022-10-18T15:14:28.203Z,16.73
2022-10-18T15:17:20.631Z,16.70
2022-10-18T15:20:39.315Z,16.73
2022-10-18T15:23:31.192Z,16.69
2022-10-18T15:26:23.742Z,16.52
2022-10-18T15:29:17.135Z,16.45
2022-10-18T15:32:18.805Z,16.41
2022-10-18T15:35:09.667Z,16.40
2022-10-18T15:37:56.904Z,16.27
2022-10-18T15:40:43.134Z,16.15
2022-10-18T15:43:28.063Z,16.03
2022-10-18T15:46:29.839Z,15.99
2022-10-18T15:49:23.721Z,15.90
2022-10-18T15:52:08.669Z,15.81
2022-10-18T15:54:54.069Z,15.79
2022-10-18T15:57:38.947Z,15.74
2022-10-18T16:00:23.987Z,15.67
2022-10-18T16:03:09.744Z,15.55
2022-10-18T16:06:05.935Z,15.48
2022-10-18T16:08:52.969Z,15.43
2022-10-18T16:11:38.015Z,15.34
2022-10-18T16:14:22.793Z,15.31
2022-10-18T16:17:16.803Z,15.17
2022-10-18T16:20:01.874Z,15.21
2022-10-18T16:22:46.967Z,15.10
2022-10-18T16:25:32.192Z,15.00
2022-10-18T16:28:20.644Z,14.90
2022-10-18T16:31:05.854Z,14.80
2022-10-18T16:33:51.879Z,14.80
2022-10-18T16:36:37.570Z,14.72
2022-10-18T16:39:23.165Z,14.67
2022-10-18T16:42:08.028Z,14.61
2022-10-18T16:44:54.917Z,14.56
2022-10-18T16:47:39.968Z,14.50
2022-10-18T16:50:25.282Z,14.43
2022-10-18T16:53:10.933Z,14.35
2022-10-18T16:56:00.740Z,14.29
2022-10-18T16:58:46.444Z,14.24
2022-10-18T17:01:31.360Z,14.16
2022-10-18T17:04:16.449Z,14.10
2022-10-18T17:07:02.981Z,14.04
2022-10-18T17:09:48.304Z,14.05
2022-10-18T17:12:33.765Z,14.02
2022-10-18T17:15:18.654Z,13.95
2022-10-18T17:18:03.915Z,13.89
2022-10-18T17:20:50.139Z,13.81
2022-10-18T17:23:35.174Z,13.71
2022-10-18T17:26:30.678Z,13.64
2022-10-18T17:29:16.015Z,13.61
2022-10-18T17:32:01.279Z,13.47
2022-10-18T17:34:46.002Z,13.45
2022-10-18T17:37:31.436Z,13.46
2022-10-18T17:40:16.724Z,13.45
2022-10-18T17:43:01.557Z,13.43
2022-10-18T17:45:48.485Z,13.41
2022-10-18T17:48:33.602Z,13.37
2022-10-18T17:51:18.501Z,13.39
2022-10-18T17:54:04.967Z,13.39
2022-10-18T17:56:53.868Z,13.37
2022-10-18T17:59:39.877Z,13.29
2022-10-18T18:02:25.108Z,13.24
2022-10-18T18:05:10.538Z,13.20
2022-10-18T18:07:56.864Z,13.18
2022-10-18T18:10:44.030Z,13.10
2022-10-18T18:13:29.233Z,13.07
2022-10-18T18:16:20.909Z,13.05
2022-10-18T18:19:09.633Z,13.01
2022-10-18T18:21:55.705Z,12.97
2022-10-18T18:24:40.976Z,12.90
2022-10-18T18:27:25.886Z,12.88
2022-10-18T18:30:11.032Z,12.89
2022-10-18T18:32:55.887Z,12.88
2022-10-18T18:35:41.068Z,12.82
2022-10-18T18:38:26.677Z,12.80
2022-10-18T18:41:14.435Z,12.81
2022-10-18T18:44:01.896Z,12.78
2022-10-18T18:46:48.043Z,12.84
2022-10-18T18:49:33.264Z,12.75
2022-10-18T18:52:18.162Z,12.67
2022-10-18T18:55:03.572Z,12.57
2022-10-18T18:57:48.694Z,12.47
2022-10-18T19:00:33.650Z,12.39
2022-10-18T19:03:18.891Z,12.36
2022-10-18T19:06:09.752Z,12.53
2022-10-18T19:09:01.341Z,12.39
2022-10-18T19:11:47.647Z,12.36
2022-10-18T19:14:32.654Z,12.35
2022-10-18T19:17:17.876Z,12.23
2022-10-18T19:20:04.940Z,12.26
2022-10-18T19:22:49.939Z,12.25
2022-10-18T19:25:34.615Z,12.22
2022-10-18T19:28:19.649Z,12.16
2022-10-18T19:31:05.439Z,12.20
2022-10-18T19:33:59.269Z,12.15
2022-10-18T19:36:46.660Z,12.10
2022-10-18T19:39:34.233Z,12.09
2022-10-18T19:42:24.203Z,12.09
2022-10-18T19:45:13.881Z,12.10
2022-10-18T19:47:58.751Z,12.01
2022-10-18T19:50:43.852Z,11.97
2022-10-18T19:53:29.088Z,11.96
2022-10-18T19:56:21.231Z,11.92
2022-10-18T19:59:06.389Z,11.87
2022-10-18T20:01:51.473Z,11.89
2022-10-18T20:04:38.112Z,11.81
2022-10-18T20:07:23.270Z,11.81
2022-10-18T20:10:09.862Z,11.78
2022-10-18T20:12:54.599Z,11.77
2022-10-18T20:15:39.734Z,11.64
2022-10-18T20:18:25.101Z,11.74
2022-10-18T20:21:15.846Z,11.69
2022-10-18T20:24:04.469Z,11.71
2022-10-18T20:26:49.590Z,11.66
2022-10-18T20:29:35.548Z,11.52
2022-10-18T20:32:20.644Z,11.55
2022-10-18T20:35:05.911Z,11.47
2022-10-18T20:37:51.214Z,11.56
2022-10-18T20:40:36.114Z,11.56
2022-10-18T20:43:21.169Z,11.42
2022-10-18T20:46:07.789Z,11.35
2022-10-18T20:48:54.102Z,11.33
2022-10-18T20:51:39.236Z,11.32
2022-10-18T20:54:24.208Z,11.35
2022-10-18T20:57:09.135Z,11.20
2022-10-18T20:59:54.239Z,11.07
2022-10-18T21:02:39.283Z,11.05
2022-10-18T21:05:24.488Z,11.08
2022-10-18T21:08:09.444Z,10.92
2022-10-18T21:10:55.597Z,10.96
2022-10-18T21:13:40.824Z,10.86
2022-10-18T21:16:26.371Z,10.81
2022-10-18T21:19:19.665Z,10.75
2022-10-18T21:22:04.901Z,10.73
2022-10-18T21:24:50.518Z,10.67
2022-10-18T21:27:36.053Z,10.69
2022-10-18T21:30:21.125Z,10.69
2022-10-18T21:33:07.026Z,10.64
2022-10-18T21:35:52.279Z,10.57
2022-10-18T21:38:37.475Z,10.58
2022-10-18T21:41:22.985Z,10.60
2022-10-18T21:44:10.695Z,10.56
2022-10-18T21:46:55.664Z,10.49
2022-10-18T21:49:40.752Z,10.49
2022-10-18T21:52:25.780Z,10.40
2022-10-18T21:55:13.742Z,10.29
2022-10-18T21:57:58.866Z,10.37
2022-10-18T22:00:43.950Z,10.44
2022-10-18T22:03:29.254Z,10.43
2022-10-18T22:06:15.229Z,10.42
2022-10-18T22:09:03.678Z,10.40
2022-10-18T22:11:52.590Z,10.44
2022-10-18T22:14:37.728Z,10.37
2022-10-18T22:17:23.530Z,10.31
2022-10-18T22:20:09.582Z,10.28
2022-10-18T22:22:55.508Z,10.20
2022-10-18T22:25:40.751Z,10.21
2022-10-18T22:28:26.079Z,10.18
2022-10-18T22:31:17.119Z,10.18
2022-10-18T22:34:05.388Z,10.11
2022-10-18T22:36:50.855Z,10.18
2022-10-18T22:39:35.719Z,10.21
2022-10-18T22:42:20.781Z,10.21
2022-10-18T22:45:06.434Z,10.21
2022-10-18T22:47:51.321Z,10.21
2022-10-18T22:50:36.461Z,9.95
2022-10-18T22:53:21.692Z,10.04
2022-10-18T22:56:09.009Z,10.11
2022-10-18T22:58:53.875Z,10.08
2022-10-18T23:01:39.046Z,10.03
2022-10-18T23:04:24.133Z,10.07
2022-10-18T23:07:08.832Z,10.05
2022-10-18T23:09:53.994Z,10.03
2022-10-18T23:12:38.864Z,10.06
2022-10-18T23:15:23.808Z,9.67
2022-10-18T23:18:08.702Z,9.76
2022-10-18T23:21:01.301Z,9.65
2022-10-18T23:23:47.053Z,9.73
2022-10-18T23:26:32.356Z,9.73
2022-10-18T23:29:17.357Z,9.56
2022-10-18T23:32:02.251Z,9.76
2022-10-18T23:34:47.247Z,9.49
2022-10-18T23:37:33.039Z,9.56
2022-10-18T23:40:18.150Z,9.48
2022-10-18T23:43:02.946Z,9.52
2022-10-18T23:45:48.140Z,9.52
2022-10-18T23:48:34.156Z,9.49
2022-10-18T23:51:19.329Z,9.57
2022-10-18T23:54:04.126Z,9.68
2022-10-18T23:56:49.240Z,9.75
2022-10-18T23:59:34.646Z,9.66
